Time;durP1;ratioP1;P1;durP2;ratioP2;P2;SDS_P1;SDS_P2;PMS_P1;PMS_P2;Temp;Humidity;BMP_temperature;BMP_pressure;BME280_temperature;BME280_humidity;BME280_pressure;Samples;Min_cycle;Max_cycle;Signal;HPM_P1;HPM_P2
2023/04/29 00:01:25;;;;;;;;;;;;;;;;;;4347085;33;19962;-79
2023/04/29 00:03:50;;;;;;;;;;;;;;;;;;4346966;33;19935;-79
2023/04/29 00:06:16;;;;;;;;;;;;;;;;;;4345955;33;20279;-80
2023/04/29 00:08:41;;;;;;;;;;;;;;;;;;4346789;33;19953;-79
2023/04/29 00:11:06;;;;;;;;;;;;;;;;;;4347189;33;19946;-79
2023/04/29 00:13:32;;;;;;;;;;;;;;;;;;4346449;33;20295;-80
2023/04/29 00:15:57;;;;;;;;;;;;;;;;;;4357601;33;19970;-78
2023/04/29 00:18:22;;;;;;;;;;;;;;;;;;4358235;33;19937;-79
2023/04/29 00:20:47;;;;;;;;;;;;;;;;;;4354248;33;19942;-79
2023/04/29 00:23:12;;;;;;;;;;;;;;;;;;4346465;33;19954;-79
2023/04/29 00:25:37;;;;;;;;;;;;;;;;;;4345915;33;19946;-79
2023/04/29 00:28:03;;;;;;;;;;;;;;;;;;4346289;33;19935;-80
2023/04/29 00:30:28;;;;;;;;;;;;;;;;;;4347038;33;19959;-79
2023/04/29 00:32:54;;;;;;;;;;;;;;;;;;4349758;33;19972;-79
2023/04/29 00:35:19;;;;;;;;;;;;;;;;;;4348184;33;20320;-79
2023/04/29 00:37:44;;;;;;;;;;;;;;;;;;4347257;33;19972;-80
2023/04/29 00:40:09;;;;;;;;;;;;;;;;;;4344657;33;19953;-79
2023/04/29 00:42:34;;;;;;;;;;;;;;;;;;4346887;33;19945;-79
2023/04/29 00:44:59;;;;;;;;;;;;;;;;;;4349291;33;19998;-79
2023/04/29 00:47:24;;;;;;;;;;;;;;;;;;4351691;33;19977;-79
2023/04/29 00:49:50;;;;;;;;;;;;;;;;;;4346877;33;19935;-79
2023/04/29 00:52:15;;;;;;;;;;;;;;;;;;4347632;33;19953;-79
2023/04/29 00:54:40;;;;;;;;;;;;;;;;;;4348989;33;19947;-80
2023/04/29 00:57:06;;;;;;;;;;;;;;;;;;4348635;33;19949;-79
2023/04/29 00:59:32;;;;;;;;;;;;;;;;;;4348917;33;19989;-80
2023/04/29 01:01:58;;;;;;;;;;;;;;;;;;4347780;33;19974;-79
2023/04/29 01:04:23;;;;;;;;;;;;;;;;;;4349314;33;19939;-81
2023/04/29 01:06:48;;;;;;;;;;;;;;;;;;4348654;33;19961;-81
2023/04/29 01:09:13;;;;;;;;;;;;;;;;;;4347500;33;19942;-80
2023/04/29 01:11:39;;;;;;;;;;;;;;;;;;4348784;33;19974;-79
2023/04/29 01:14:04;;;;;;;;;;;;;;;;;;4349214;33;20262;-79
2023/04/29 01:16:29;;;;;;;;;;;;;;;;;;4349976;33;20289;-79
2023/04/29 01:18:54;;;;;;;;;;;;;;;;;;4351929;33;19980;-79
2023/04/29 01:21:19;;;;;;;;;;;;;;;;;;4350358;33;19942;-80
2023/04/29 01:23:44;;;;;;;;;;;;;;;;;;4349312;33;19999;-80
2023/04/29 01:26:10;;;;;;;;;;;;;;;;;;4348487;33;19949;-80
2023/04/29 01:28:35;;;;;;;;;;;;;;;;;;4348542;33;19931;-80
2023/04/29 01:31:00;;;;;;;;;;;;;;;;;;4347654;33;19954;-80
2023/04/29 01:33:25;;;;;;;;;;;;;;;;;;4349402;33;19998;-80
2023/04/29 01:35:51;;;;;;;;;;;;;;;;;;4350081;33;19994;-80
2023/04/29 01:38:17;;;;;;;;;;;;;;;;;;4353664;33;19974;-79
2023/04/29 01:40:42;;;;;;;;;;;;;;;;;;4348389;33;20006;-80
2023/04/29 01:43:10;;;;;;;;;;;;;;;;;;4349020;33;19939;-78
2023/04/29 01:45:35;;;;;;;;;;;;;;;;;;4348587;33;19934;-80
2023/04/29 01:48:01;;;;;;;;;;;;;;;;;;4347866;33;19939;-79
2023/04/29 01:50:26;;;;;;;;;;;;;;;;;;4347865;33;19986;-79
2023/04/29 01:52:52;;;;;;;;;;;;;;;;;;4348240;33;19935;-79
2023/04/29 01:55:17;;;;;;;;;;;;;;;;;;4347925;33;20032;-80
2023/04/29 01:57:43;;;;;;;;;;;;;;;;;;4349670;33;19954;-79
2023/04/29 02:00:08;;;;;;;;;;;;;;;;;;4356036;33;19954;-79
2023/04/29 02:02:33;;;;;;;;;;;;;;;;;;4356405;33;19943;-80
2023/04/29 02:04:58;;;;;;;;;;;;;;;;;;4347513;33;19949;-80
2023/04/29 02:07:23;;;;;;;;;;;;;;;;;;4346430;33;19939;-80
2023/04/29 02:09:48;;;;;;;;;;;;;;;;;;4348136;33;20293;-79
2023/04/29 02:12:13;;;;;;;;;;;;;;;;;;4347865;33;20370;-79
2023/04/29 02:14:38;;;;;;;;;;;;;;;;;;4348242;33;19935;-80
2023/04/29 02:17:04;;;;;;;;;;;;;;;;;;4347751;33;19949;-80
2023/04/29 02:19:29;;;;;;;;;;;;;;;;;;4346101;33;19950;-80
2023/04/29 02:21:54;;;;;;;;;;;;;;;;;;4347742;33;19939;-80
2023/04/29 02:24:19;;;;;;;;;;;;;;;;;;4349352;33;20268;-80
2023/04/29 02:26:44;;;;;;;;;;;;;;;;;;4347524;33;19939;-80
2023/04/29 02:29:09;;;;;;;;;;;;;;;;;;4348100;33;19986;-79
2023/04/29 02:31:34;;;;;;;;;;;;;;;;;;4346337;33;19942;-78
2023/04/29 02:34:00;;;;;;;;;;;;;;;;;;4346699;33;20086;-79
2023/04/29 02:36:25;;;;;;;;;;;;;;;;;;4347788;33;19949;-79
2023/04/29 02:38:52;;;;;;;;;;;;;;;;;;4347641;33;20001;-78
2023/04/29 02:41:17;;;;;;;;;;;;;;;;;;4348596;33;19947;-78
2023/04/29 02:43:43;;;;;;;;;;;;;;;;;;4348687;33;19935;-79
2023/04/29 02:46:08;;;;;;;;;;;;;;;;;;4347550;33;19954;-79
2023/04/29 02:48:33;;;;;;;;;;;;;;;;;;4346337;33;19949;-79
2023/04/29 02:50:58;;;;;;;;;;;;;;;;;;4345802;33;19969;-80
2023/04/29 02:53:23;;;;;;;;;;;;;;;;;;4345636;33;20309;-80
2023/04/29 02:55:49;;;;;;;;;;;;;;;;;;4348554;33;19939;-80
2023/04/29 02:58:14;;;;;;;;;;;;;;;;;;4353433;33;19950;-80
2023/04/29 03:00:39;;;;;;;;;;;;;;;;;;4356570;33;19977;-80
2023/04/29 03:03:04;;;;;;;;;;;;;;;;;;4355828;32;20304;-81
2023/04/29 03:05:29;;;;;;;;;;;;;;;;;;4346245;33;20317;-81
2023/04/29 03:07:54;;;;;;;;;;;;;;;;;;4347905;33;19952;-80
2023/04/29 03:10:19;;;;;;;;;;;;;;;;;;4345973;33;19954;-80
2023/04/29 03:12:45;;;;;;;;;;;;;;;;;;4347542;33;20010;-80
2023/04/29 03:15:10;;;;;;;;;;;;;;;;;;4347730;33;19974;-80
2023/04/29 03:17:35;;;;;;;;;;;;;;;;;;4349636;33;19939;-80
2023/04/29 03:20:00;;;;;;;;;;;;;;;;;;4346779;32;19954;-81
2023/04/29 03:22:25;;;;;;;;;;;;;;;;;;4346826;33;19939;-80
2023/04/29 03:24:50;;;;;;;;;;;;;;;;;;4346818;33;19945;-81
2023/04/29 03:27:16;;;;;;;;;;;;;;;;;;4346176;33;20347;-81
2023/04/29 03:29:41;;;;;;;;;;;;;;;;;;4346905;33;19943;-80
2023/04/29 03:32:06;;;;;;;;;;;;;;;;;;4345256;33;20003;-80
2023/04/29 03:34:31;;;;;;;;;;;;;;;;;;4345897;33;19951;-80
2023/04/29 03:36:57;;;;;;;;;;;;;;;;;;4345743;33;19978;-80
2023/04/29 03:39:22;;;;;;;;;;;;;;;;;;4349704;33;19938;-80
2023/04/29 03:41:47;;;;;;;;;;;;;;;;;;4350528;33;19938;-80
2023/04/29 03:44:12;;;;;;;;;;;;;;;;;;4348573;33;19939;-79
2023/04/29 03:46:37;;;;;;;;;;;;;;;;;;4347216;33;20012;-80
2023/04/29 03:49:02;;;;;;;;;;;;;;;;;;4346875;33;19942;-80
2023/04/29 03:51:28;;;;;;;;;;;;;;;;;;4347966;33;19943;-80
2023/04/29 03:53:53;;;;;;;;;;;;;;;;;;4346927;33;19939;-80
2023/04/29 03:56:19;;;;;;;;;;;;;;;;;;4351769;32;19966;-79
2023/04/29 03:58:45;;;;;;;;;;;;;;;;;;4350727;32;19947;-80
2023/04/29 04:01:10;;;;;;;;;;;;;;;;;;4346365;32;19947;-80
2023/04/29 04:03:36;;;;;;;;;;;;;;;;;;4349182;32;19957;-80
2023/04/29 04:06:01;;;;;;;;;;;;;;;;;;4359031;32;20287;-80
2023/04/29 04:08:26;;;;;;;;;;;;;;;;;;4346457;33;20029;-81
2023/04/29 04:10:51;;;;;;;;;;;;;;;;;;4357679;32;20003;-78
2023/04/29 04:13:16;;;;;;;;;;;;;;;;;;4357172;32;19989;-79
2023/04/29 04:15:41;;;;;;;;;;;;;;;;;;4357061;32;19935;-80
2023/04/29 04:18:07;;;;;;;;;;;;;;;;;;4347036;32;19986;-79
2023/04/29 04:20:32;;;;;;;;;;;;;;;;;;4345773;33;19957;-80
2023/04/29 04:22:57;;;;;;;;;;;;;;;;;;4346973;32;19986;-80
2023/04/29 04:25:22;;;;;;;;;;;;;;;;;;4346662;33;19939;-80
2023/04/29 04:27:47;;;;;;;;;;;;;;;;;;4357171;32;19989;-80
2023/04/29 04:30:12;;;;;;;;;;;;;;;;;;4357543;32;20056;-80
2023/04/29 04:32:39;;;;;;;;;;;;;;;;;;4345749;33;19998;-80
2023/04/29 04:35:05;;;;;;;;;;;;;;;;;;4347222;33;20255;-80
2023/04/29 04:37:30;;;;;;;;;;;;;;;;;;4346754;33;19949;-79
2023/04/29 04:39:55;;;;;;;;;;;;;;;;;;4346167;33;19973;-79
2023/04/29 04:42:20;;;;;;;;;;;;;;;;;;4346191;33;19953;-79
2023/04/29 04:44:46;;;;;;;;;;;;;;;;;;4347328;33;19938;-79
2023/04/29 04:47:11;;;;;;;;;;;;;;;;;;4356873;32;19939;-80
2023/04/29 04:49:36;;;;;;;;;;;;;;;;;;4357166;32;19982;-79
2023/04/29 04:52:01;;;;;;;;;;;;;;;;;;4352733;33;19927;-79
2023/04/29 04:54:26;;;;;;;;;;;;;;;;;;4352844;33;19966;-79
2023/04/29 04:56:51;;;;;;;;;;;;;;;;;;4351425;33;19947;-79
2023/04/29 04:59:16;;;;;;;;;;;;;;;;;;4349372;33;19970;-80
2023/04/29 05:01:41;;;;;;;;;;;;;;;;;;4351654;33;20348;-79
2023/04/29 05:04:06;;;;;;;;;;;;;;;;;;4345557;33;20341;-80
2023/04/29 05:06:31;;;;;;;;;;;;;;;;;;4344328;33;19935;-80
2023/04/29 05:08:56;;;;;;;;;;;;;;;;;;4345794;33;19980;-80
2023/04/29 05:11:22;;;;;;;;;;;;;;;;;;4346234;33;19954;-81
2023/04/29 05:13:47;;;;;;;;;;;;;;;;;;4348163;33;19984;-81
2023/04/29 05:16:12;;;;;;;;;;;;;;;;;;4354388;33;20309;-81
2023/04/29 05:18:37;;;;;;;;;;;;;;;;;;4354226;33;19974;-80
2023/04/29 05:21:02;;;;;;;;;;;;;;;;;;4349393;33;19942;-80
2023/04/29 05:23:27;;;;;;;;;;;;;;;;;;4346533;33;19943;-80
2023/04/29 05:25:52;;;;;;;;;;;;;;;;;;4347648;33;19953;-81
2023/04/29 05:28:17;;;;;;;;;;;;;;;;;;4348259;33;19950;-80
2023/04/29 05:30:43;;;;;;;;;;;;;;;;;;4344778;33;19953;-80
2023/04/29 05:33:08;;;;;;;;;;;;;;;;;;4344273;33;20332;-79
2023/04/29 05:35:33;;;;;;;;;;;;;;;;;;4345816;33;19935;-80
2023/04/29 05:37:59;;;;;;;;;;;;;;;;;;4345377;33;20252;-80
2023/04/29 05:40:24;;;;;;;;;;;;;;;;;;4346851;33;19958;-80
2023/04/29 05:42:49;;;;;;;;;;;;;;;;;;4346979;33;19957;-81
2023/04/29 05:45:14;;;;;;;;;;;;;;;;;;4348269;33;19938;-80
2023/04/29 05:47:39;;;;;;;;;;;;;;;;;;4349171;33;19943;-79
2023/04/29 05:50:05;;;;;;;;;;;;;;;;;;4347728;33;19982;-78
2023/04/29 05:52:30;;;;;;;;;;;;;;;;;;4346958;32;19945;-80
2023/04/29 05:54:55;;;;;;;;;;;;;;;;;;4355456;33;20360;-81
2023/04/29 05:57:20;;;;;;;;;;;;;;;;;;4359514;32;20324;-81
2023/04/29 05:59:45;;;;;;;;;;;;;;;;;;4353219;33;19981;-80
2023/04/29 06:02:11;;;;;;;;;;;;;;;;;;4364909;32;19943;-80
2023/04/29 06:04:36;;;;;;;;;;;;;;;;;;4363279;32;20001;-79
2023/04/29 06:07:01;;;;;;;;;;;;;;;;;;4359802;32;19939;-78
2023/04/29 06:09:26;;;;;;;;;;;;;;;;;;4359296;32;19966;-80
2023/04/29 06:11:52;;;;;;;;;;;;;;;;;;4348090;33;19957;-80
2023/04/29 06:14:17;;;;;;;;;;;;;;;;;;4348165;33;19951;-80
2023/04/29 06:16:42;;;;;;;;;;;;;;;;;;4348227;33;19943;-80
2023/04/29 06:19:07;;;;;;;;;;;;;;;;;;4359106;32;19945;-79
2023/04/29 06:21:32;;;;;;;;;;;;;;;;;;4348896;33;19946;-79
2023/04/29 06:23:57;;;;;;;;;;;;;;;;;;4349585;32;19943;-81
2023/04/29 06:26:22;;;;;;;;;;;;;;;;;;4359481;32;19987;-79
2023/04/29 06:28:47;;;;;;;;;;;;;;;;;;4354447;32;19954;-79
2023/04/29 06:31:13;;;;;;;;;;;;;;;;;;4348816;32;19969;-79
2023/04/29 06:33:38;;;;;;;;;;;;;;;;;;4358547;32;19939;-80
2023/04/29 06:36:03;;;;;;;;;;;;;;;;;;4358359;32;19969;-80
2023/04/29 06:38:28;;;;;;;;;;;;;;;;;;4348367;32;19943;-79
2023/04/29 06:40:53;;;;;;;;;;;;;;;;;;4347678;32;19973;-80
2023/04/29 06:43:18;;;;;;;;;;;;;;;;;;4347017;32;19943;-80
2023/04/29 06:45:43;;;;;;;;;;;;;;;;;;4366817;32;19953;-79
2023/04/29 06:48:09;;;;;;;;;;;;;;;;;;4362300;32;19987;-79
2023/04/29 06:50:35;;;;;;;;;;;;;;;;;;4347202;33;19961;-80
2023/04/29 06:53:00;;;;;;;;;;;;;;;;;;4347746;32;19973;-81
2023/04/29 06:55:25;;;;;;;;;;;;;;;;;;4348402;32;19943;-79
2023/04/29 06:57:50;;;;;;;;;;;;;;;;;;4346124;33;19957;-78
2023/04/29 07:00:15;;;;;;;;;;;;;;;;;;4347520;33;19955;-80
2023/04/29 07:02:40;;;;;;;;;;;;;;;;;;4346953;33;19946;-80
2023/04/29 07:05:08;;;;;;;;;;;;;;;;;;4346629;33;19942;-80
2023/04/29 07:07:33;;;;;;;;;;;;;;;;;;4348113;33;19970;-79
2023/04/29 07:09:58;;;;;;;;;;;;;;;;;;4347717;33;19965;-80
2023/04/29 07:12:23;;;;;;;;;;;;;;;;;;4346825;33;19939;-79
2023/04/29 07:14:48;;;;;;;;;;;;;;;;;;4346891;33;20009;-80
2023/04/29 07:17:14;;;;;;;;;;;;;;;;;;4346192;33;19939;-80
2023/04/29 07:19:39;;;;;;;;;;;;;;;;;;4345231;33;19961;-80
2023/04/29 07:22:04;;;;;;;;;;;;;;;;;;4345388;33;19958;-80
2023/04/29 07:24:29;;;;;;;;;;;;;;;;;;4345595;33;19977;-79
2023/04/29 07:26:55;;;;;;;;;;;;;;;;;;4345208;33;19977;-79
2023/04/29 07:29:20;;;;;;;;;;;;;;;;;;4346536;33;20291;-80
2023/04/29 07:31:45;;;;;;;;;;;;;;;;;;4345233;33;19949;-79
2023/04/29 07:34:11;;;;;;;;;;;;;;;;;;4346199;33;19949;-80
2023/04/29 07:36:36;;;;;;;;;;;;;;;;;;4346680;33;19939;-81
2023/04/29 07:39:01;;;;;;;;;;;;;;;;;;4346504;33;19946;-79
2023/04/29 07:41:26;;;;;;;;;;;;;;;;;;4347292;33;19953;-79
2023/04/29 07:43:51;;;;;;;;;;;;;;;;;;4346046;33;19948;-78
2023/04/29 07:46:17;;;;;;;;;;;;;;;;;;4346342;33;19939;-79
2023/04/29 07:48:42;;;;;;;;;;;;;;;;;;4345661;32;19931;-81
2023/04/29 07:51:07;;;;;;;;;;;;;;;;;;4347741;33;19947;-79
2023/04/29 07:53:32;;;;;;;;;;;;;;;;;;4348221;33;20260;-81
2023/04/29 07:55:57;;;;;;;;;;;;;;;;;;4347040;33;19938;-80
2023/04/29 07:58:23;;;;;;;;;;;;;;;;;;4346459;33;19949;-79
2023/04/29 08:00:48;;;;;;;;;;;;;;;;;;4344970;33;19942;-81
2023/04/29 08:03:13;;;;;;;;;;;;;;;;;;4345714;33;20276;-81
2023/04/29 08:05:38;;;;;;;;;;;;;;;;;;4351673;33;19993;-79
2023/04/29 08:08:03;;;;;;;;;;;;;;;;;;4347896;33;20318;-79
2023/04/29 08:10:28;;;;;;;;;;;;;;;;;;4347194;33;19969;-79
2023/04/29 08:12:53;;;;;;;;;;;;;;;;;;4346637;33;19982;-78
2023/04/29 08:15:19;;;;;;;;;;;;;;;;;;4344700;33;20018;-79
2023/04/29 08:17:44;;;;;;;;;;;;;;;;;;4346669;33;19939;-79
2023/04/29 08:20:09;;;;;;;;;;;;;;;;;;4344760;32;20284;-79
2023/04/29 08:22:35;;;;;;;;;;;;;;;;;;4346336;33;19951;-79
2023/04/29 08:25:02;;;;;;;;;;;;;;;;;;4346299;33;19952;-80
2023/04/29 08:27:27;;;;;;;;;;;;;;;;;;4355351;33;19970;-79
2023/04/29 08:29:52;;;;;;;;;;;;;;;;;;4350014;33;19973;-79
2023/04/29 08:32:17;;;;;;;;;;;;;;;;;;4346789;33;19978;-78
2023/04/29 08:34:43;;;;;;;;;;;;;;;;;;4347396;33;19939;-81
2023/04/29 08:37:08;;;;;;;;;;;;;;;;;;4345976;33;19953;-80
2023/04/29 08:39:33;;;;;;;;;;;;;;;;;;4344945;33;19951;-79
2023/04/29 08:41:59;;;;;;;;;;;;;;;;;;4346444;33;19949;-79
2023/04/29 08:44:24;;;;;;;;;;;;;;;;;;4345397;33;20218;-80
2023/04/29 08:46:49;;;;;;;;;;;;;;;;;;4348013;33;19977;-78
2023/04/29 08:49:14;;;;;;;;;;;;;;;;;;4348070;33;19939;-79
2023/04/29 08:51:39;;;;;;;;;;;;;;;;;;4346875;33;20305;-80
2023/04/29 08:54:06;;;;;;;;;;;;;;;;;;4346072;33;19974;-81
2023/04/29 08:56:31;;;;;;;;;;;;;;;;;;4345867;33;19950;-78
2023/04/29 08:58:57;;;;;;;;;;;;;;;;;;4345175;33;19985;-80
2023/04/29 09:01:23;;;;;;;;;;;;;;;;;;4346102;33;19953;-80
2023/04/29 09:03:48;;;;;;;;;;;;;;;;;;4344431;33;19943;-80
2023/04/29 09:06:13;;;;;;;;;;;;;;;;;;4345547;33;19942;-80
2023/04/29 09:08:38;;;;;;;;;;;;;;;;;;4346670;33;19949;-80
2023/04/29 09:11:03;;;;;;;;;;;;;;;;;;4345958;33;19950;-80
2023/04/29 09:13:28;;;;;;;;;;;;;;;;;;4347356;33;19943;-80
2023/04/29 09:15:53;;;;;;;;;;;;;;;;;;4346878;33;19947;-79
2023/04/29 09:18:18;;;;;;;;;;;;;;;;;;4348943;33;20300;-80
2023/04/29 09:20:44;;;;;;;;;;;;;;;;;;4352013;33;19981;-79
2023/04/29 09:23:09;;;;;;;;;;;;;;;;;;4348098;33;19938;-79
2023/04/29 09:25:35;;;;;;;;;;;;;;;;;;4349001;33;19977;-77
2023/04/29 09:28:00;;;;;;;;;;;;;;;;;;4353542;33;19950;-79
2023/04/29 09:30:25;;;;;;;;;;;;;;;;;;4353795;33;19989;-79
2023/04/29 09:32:50;;;;;;;;;;;;;;;;;;4355185;33;19947;-78
2023/04/29 09:35:15;;;;;;;;;;;;;;;;;;4354520;33;19984;-79
2023/04/29 09:37:40;;;;;;;;;;;;;;;;;;4349528;33;19939;-79
2023/04/29 09:40:06;;;;;;;;;;;;;;;;;;4348642;33;19938;-79
2023/04/29 09:42:31;;;;;;;;;;;;;;;;;;4347452;33;20252;-78
2023/04/29 09:44:56;;;;;;;;;;;;;;;;;;4346873;33;20058;-79
2023/04/29 09:47:22;;;;;;;;;;;;;;;;;;4347149;33;19939;-78
2023/04/29 09:49:48;;;;;;;;;;;;;;;;;;4348088;33;20367;-80
2023/04/29 09:52:15;;;;;;;;;;;;;;;;;;4348014;33;19969;-79
2023/04/29 09:54:40;;;;;;;;;;;;;;;;;;4348616;33;20303;-79
2023/04/29 09:57:06;;;;;;;;;;;;;;;;;;4349418;33;19942;-80
2023/04/29 09:59:31;;;;;;;;;;;;;;;;;;4348757;33;19942;-79
2023/04/29 10:01:56;;;;;;;;;;;;;;;;;;4348376;33;20038;-79
2023/04/29 10:04:21;;;;;;;;;;;;;;;;;;4349119;33;19950;-79
2023/04/29 10:06:46;;;;;;;;;;;;;;;;;;4350898;33;19965;-78
2023/04/29 10:09:12;;;;;;;;;;;;;;;;;;4353823;33;19935;-79
2023/04/29 10:11:37;;;;;;;;;;;;;;;;;;4347800;33;19950;-79
2023/04/29 10:14:02;;;;;;;;;;;;;;;;;;4348560;33;19949;-79
2023/04/29 10:16:28;;;;;;;;;;;;;;;;;;4349070;33;19994;-80
2023/04/29 10:18:54;;;;;;;;;;;;;;;;;;4350320;33;19943;-78
2023/04/29 10:21:19;;;;;;;;;;;;;;;;;;4351115;33;19943;-78
2023/04/29 10:23:44;;;;;;;;;;;;;;;;;;4353006;33;19950;-78
2023/04/29 10:26:09;;;;;;;;;;;;;;;;;;4368166;32;19950;-78
2023/04/29 10:28:34;;;;;;;;;;;;;;;;;;4366778;32;20312;-78
2023/04/29 10:30:59;;;;;;;;;;;;;;;;;;4352041;33;19973;-78
2023/04/29 10:33:26;;;;;;;;;;;;;;;;;;4350121;33;19947;-79
2023/04/29 10:35:52;;;;;;;;;;;;;;;;;;4359842;32;19945;-80
2023/04/29 10:38:18;;;;;;;;;;;;;;;;;;4347880;33;20394;-78
2023/04/29 10:40:44;;;;;;;;;;;;;;;;;;4359588;32;19962;-78
2023/04/29 10:43:09;;;;;;;;;;;;;;;;;;4348332;33;19935;-77
2023/04/29 10:45:34;;;;;;;;;;;;;;;;;;4349557;33;19943;-79
2023/04/29 10:48:00;;;;;;;;;;;;;;;;;;4349003;33;20316;-78
2023/04/29 10:50:25;;;;;;;;;;;;;;;;;;4358893;32;19943;-77
2023/04/29 10:52:50;;;;;;;;;;;;;;;;;;4347739;33;19935;-78
2023/04/29 10:55:15;;;;;;;;;;;;;;;;;;4346458;33;19978;-77
2023/04/29 10:57:41;;;;;;;;;;;;;;;;;;4357760;33;19938;-78
2023/04/29 11:00:06;;;;;;;;;;;;;;;;;;4357863;32;19939;-77
2023/04/29 11:02:31;;;;;;;;;;;;;;;;;;4357846;33;19969;-78
2023/04/29 11:04:56;;;;;;;;;;;;;;;;;;4346480;32;19938;-77
2023/04/29 11:07:21;;;;;;;;;;;;;;;;;;4357434;33;19976;-77
2023/04/29 11:09:46;;;;;;;;;;;;;;;;;;4346720;33;19954;-78
2023/04/29 11:12:12;;;;;;;;;;;;;;;;;;4346227;33;19954;-79
2023/04/29 11:14:37;;;;;;;;;;;;;;;;;;4345924;33;19993;-78
2023/04/29 11:17:02;;;;;;;;;;;;;;;;;;4357539;33;20267;-78
2023/04/29 11:19:27;;;;;;;;;;;;;;;;;;4357306;33;19982;-78
2023/04/29 11:21:53;;;;;;;;;;;;;;;;;;4346472;33;19935;-78
2023/04/29 11:24:18;;;;;;;;;;;;;;;;;;4346745;33;20053;-78
2023/04/29 11:26:43;;;;;;;;;;;;;;;;;;4346128;33;19942;-76
2023/04/29 11:29:09;;;;;;;;;;;;;;;;;;4346769;33;19972;-78
2023/04/29 11:31:34;;;;;;;;;;;;;;;;;;4361586;33;20263;-78
2023/04/29 11:33:59;;;;;;;;;;;;;;;;;;4357480;33;19943;-78
2023/04/29 11:36:25;;;;;;;;;;;;;;;;;;4345740;33;20307;-77
2023/04/29 11:38:50;;;;;;;;;;;;;;;;;;4346809;33;19939;-78
2023/04/29 11:41:15;;;;;;;;;;;;;;;;;;4348026;33;19935;-79
2023/04/29 11:43:40;;;;;;;;;;;;;;;;;;4345514;33;20275;-79
2023/04/29 11:46:05;;;;;;;;;;;;;;;;;;4345508;33;19943;-78
2023/04/29 11:48:30;;;;;;;;;;;;;;;;;;4357316;33;19973;-78
2023/04/29 11:50:56;;;;;;;;;;;;;;;;;;4357444;33;19947;-78
2023/04/29 11:53:21;;;;;;;;;;;;;;;;;;4345370;33;19939;-78
2023/04/29 11:55:47;;;;;;;;;;;;;;;;;;4347166;33;20292;-79
2023/04/29 11:58:12;;;;;;;;;;;;;;;;;;4347241;33;19970;-78
2023/04/29 12:00:37;;;;;;;;;;;;;;;;;;4348543;33;19970;-79
2023/04/29 12:03:02;;;;;;;;;;;;;;;;;;4347523;33;19949;-78
2023/04/29 12:05:27;;;;;;;;;;;;;;;;;;4346081;33;19975;-80
2023/04/29 12:07:52;;;;;;;;;;;;;;;;;;4346632;33;19977;-79
2023/04/29 12:10:17;;;;;;;;;;;;;;;;;;4357401;32;19952;-78
2023/04/29 12:12:44;;;;;;;;;;;;;;;;;;4346488;33;19974;-79
2023/04/29 12:15:09;;;;;;;;;;;;;;;;;;4358147;32;19965;-78
2023/04/29 12:17:34;;;;;;;;;;;;;;;;;;4345818;33;19950;-78
2023/04/29 12:19:59;;;;;;;;;;;;;;;;;;4346599;33;19947;-78
2023/04/29 12:22:25;;;;;;;;;;;;;;;;;;4357513;32;19943;-79
2023/04/29 12:24:50;;;;;;;;;;;;;;;;;;4347354;33;20006;-78
2023/04/29 12:27:15;;;;;;;;;;;;;;;;;;4357375;32;19935;-78
2023/04/29 12:29:40;;;;;;;;;;;;;;;;;;4346392;33;19951;-78
2023/04/29 12:32:05;;;;;;;;;;;;;;;;;;4357119;33;19949;-80
2023/04/29 12:34:30;;;;;;;;;;;;;;;;;;4345903;33;20269;-78
2023/04/29 12:36:56;;;;;;;;;;;;;;;;;;4357375;32;20323;-79
2023/04/29 12:39:21;;;;;;;;;;;;;;;;;;4356929;33;20384;-79
2023/04/29 12:41:47;;;;;;;;;;;;;;;;;;4346627;33;20284;-78
2023/04/29 12:44:12;;;;;;;;;;;;;;;;;;4346051;33;19995;-80
2023/04/29 12:46:37;;;;;;;;;;;;;;;;;;4345169;33;20026;-78
2023/04/29 12:49:03;;;;;;;;;;;;;;;;;;4346044;33;19962;-78
2023/04/29 12:51:28;;;;;;;;;;;;;;;;;;4356970;33;19977;-79
2023/04/29 12:53:53;;;;;;;;;;;;;;;;;;4358093;33;19999;-79
2023/04/29 12:56:18;;;;;;;;;;;;;;;;;;4357269;33;20303;-77
2023/04/29 12:58:43;;;;;;;;;;;;;;;;;;4357038;33;19973;-78
2023/04/29 13:01:08;;;;;;;;;;;;;;;;;;4346297;33;19954;-79
2023/04/29 13:03:33;;;;;;;;;;;;;;;;;;4345992;33;19969;-78
2023/04/29 13:05:58;;;;;;;;;;;;;;;;;;4346365;33;19950;-79
2023/04/29 13:08:24;;;;;;;;;;;;;;;;;;4346741;33;19949;-79
2023/04/29 13:10:49;;;;;;;;;;;;;;;;;;4346338;33;19954;-78
2023/04/29 13:13:15;;;;;;;;;;;;;;;;;;4346039;33;19935;-77
2023/04/29 13:15:40;;;;;;;;;;;;;;;;;;4346687;33;19957;-78
2023/04/29 13:18:05;;;;;;;;;;;;;;;;;;4347212;33;19949;-77
2023/04/29 13:20:31;;;;;;;;;;;;;;;;;;4359450;33;19984;-77
2023/04/29 13:22:56;;;;;;;;;;;;;;;;;;4348391;33;20308;-78
2023/04/29 13:25:21;;;;;;;;;;;;;;;;;;4361272;33;20268;-77
2023/04/29 13:27:47;;;;;;;;;;;;;;;;;;4356765;33;19927;-78
2023/04/29 13:30:12;;;;;;;;;;;;;;;;;;4363609;33;19950;-78
2023/04/29 13:32:38;;;;;;;;;;;;;;;;;;4348172;33;19971;-78
2023/04/29 13:35:03;;;;;;;;;;;;;;;;;;4346133;33;19934;-77
2023/04/29 13:37:29;;;;;;;;;;;;;;;;;;4346097;33;19973;-79
2023/04/29 13:39:54;;;;;;;;;;;;;;;;;;4346393;33;19959;-78
2023/04/29 13:42:19;;;;;;;;;;;;;;;;;;4345549;33;19939;-79
2023/04/29 13:44:44;;;;;;;;;;;;;;;;;;4345333;33;19958;-77
2023/04/29 13:47:10;;;;;;;;;;;;;;;;;;4345569;33;19934;-77
2023/04/29 13:49:35;;;;;;;;;;;;;;;;;;4357130;33;19935;-79
2023/04/29 13:52:00;;;;;;;;;;;;;;;;;;4358737;33;19986;-76
2023/04/29 13:54:25;;;;;;;;;;;;;;;;;;4345178;33;19935;-77
2023/04/29 13:56:50;;;;;;;;;;;;;;;;;;4346105;33;19939;-78
2023/04/29 13:59:16;;;;;;;;;;;;;;;;;;4358185;32;19947;-78
2023/04/29 14:01:41;;;;;;;;;;;;;;;;;;4359163;32;19935;-78
2023/04/29 14:04:06;;;;;;;;;;;;;;;;;;4349459;33;20253;-78
2023/04/29 14:06:31;;;;;;;;;;;;;;;;;;4343168;33;19990;-78
2023/04/29 14:08:56;;;;;;;;;;;;;;;;;;4334801;33;19970;-79
2023/04/29 14:11:21;;;;;;;;;;;;;;;;;;4344308;33;19958;-78
2023/04/29 14:13:46;;;;;;;;;;;;;;;;;;4344494;33;19981;-80
2023/04/29 14:16:12;;;;;;;;;;;;;;;;;;4344548;33;20328;-79
2023/04/29 14:18:37;;;;;;;;;;;;;;;;;;4345441;33;20309;-78
2023/04/29 14:21:02;;;;;;;;;;;;;;;;;;4344603;33;19985;-79
2023/04/29 14:23:27;;;;;;;;;;;;;;;;;;4333051;33;19974;-78
2023/04/29 14:25:52;;;;;;;;;;;;;;;;;;4333489;33;19950;-78
2023/04/29 14:28:17;;;;;;;;;;;;;;;;;;4344485;33;19958;-78
2023/04/29 14:30:43;;;;;;;;;;;;;;;;;;4343948;33;19943;-78
2023/04/29 14:33:08;;;;;;;;;;;;;;;;;;4345431;33;19983;-78
2023/04/29 14:35:33;;;;;;;;;;;;;;;;;;4333324;33;19982;-78
2023/04/29 14:37:58;;;;;;;;;;;;;;;;;;4332775;33;19990;-78
2023/04/29 14:40:23;;;;;;;;;;;;;;;;;;4343565;33;19943;-78
2023/04/29 14:42:48;;;;;;;;;;;;;;;;;;4332384;33;19946;-78
2023/04/29 14:45:13;;;;;;;;;;;;;;;;;;4332115;33;19934;-77
2023/04/29 14:47:38;;;;;;;;;;;;;;;;;;4332540;33;20260;-78
2023/04/29 14:50:03;;;;;;;;;;;;;;;;;;4332126;33;19934;-78
2023/04/29 14:52:29;;;;;;;;;;;;;;;;;;4332237;33;19969;-77
2023/04/29 14:54:55;;;;;;;;;;;;;;;;;;4332107;33;20325;-77
2023/04/29 14:57:20;;;;;;;;;;;;;;;;;;4332696;33;19966;-78
2023/04/29 14:59:45;;;;;;;;;;;;;;;;;;4343361;33;19943;-78
2023/04/29 15:02:10;;;;;;;;;;;;;;;;;;4343671;33;19935;-78
2023/04/29 15:04:36;;;;;;;;;;;;;;;;;;4343982;33;19990;-77
2023/04/29 15:07:02;;;;;;;;;;;;;;;;;;4343301;33;19946;-77
2023/04/29 15:09:27;;;;;;;;;;;;;;;;;;4344559;33;19970;-79
2023/04/29 15:11:52;;;;;;;;;;;;;;;;;;4333820;33;19936;-77
2023/04/29 15:14:17;;;;;;;;;;;;;;;;;;4347767;33;19971;-78
2023/04/29 15:16:42;;;;;;;;;;;;;;;;;;4350966;33;19939;-77
2023/04/29 15:19:07;;;;;;;;;;;;;;;;;;4350652;33;19978;-79
2023/04/29 15:21:33;;;;;;;;;;;;;;;;;;4346373;33;19939;-78
2023/04/29 15:23:58;;;;;;;;;;;;;;;;;;4345639;32;20328;-78
2023/04/29 15:26:23;;;;;;;;;;;;;;;;;;4344779;33;19935;-76
2023/04/29 15:28:48;;;;;;;;;;;;;;;;;;4332738;33;20010;-77
2023/04/29 15:31:13;;;;;;;;;;;;;;;;;;4344709;33;19939;-77
2023/04/29 15:33:39;;;;;;;;;;;;;;;;;;4332147;33;19943;-78
2023/04/29 15:36:04;;;;;;;;;;;;;;;;;;4343019;33;19969;-75
2023/04/29 15:38:29;;;;;;;;;;;;;;;;;;4331870;33;20225;-77
2023/04/29 15:40:59;;;;;;;;;;;;;;;;;;4332377;33;19943;-77
2023/04/29 15:43:25;;;;;;;;;;;;;;;;;;4331447;33;20245;-76
2023/04/29 15:45:50;;;;;;;;;;;;;;;;;;4331426;33;20354;-78
2023/04/29 15:48:15;;;;;;;;;;;;;;;;;;4342804;33;19970;-76
2023/04/29 15:50:40;;;;;;;;;;;;;;;;;;4331657;33;20321;-78
2023/04/29 15:53:06;;;;;;;;;;;;;;;;;;4331241;33;20352;-77
2023/04/29 15:55:33;;;;;;;;;;;;;;;;;;4332452;33;20246;-77
2023/04/29 15:57:58;;;;;;;;;;;;;;;;;;4331383;33;19973;-77
2023/04/29 16:00:24;;;;;;;;;;;;;;;;;;4332123;33;19966;-75
2023/04/29 16:02:49;;;;;;;;;;;;;;;;;;4331592;33;19938;-78
2023/04/29 16:05:14;;;;;;;;;;;;;;;;;;4332345;33;19939;-77
2023/04/29 16:07:39;;;;;;;;;;;;;;;;;;4344179;33;20001;-76
2023/04/29 16:10:05;;;;;;;;;;;;;;;;;;4344542;33;20278;-76
2023/04/29 16:12:30;;;;;;;;;;;;;;;;;;4332004;33;19946;-76
2023/04/29 16:14:55;;;;;;;;;;;;;;;;;;4342427;33;20019;-77
2023/04/29 16:17:20;;;;;;;;;;;;;;;;;;4331350;33;19986;-76
2023/04/29 16:19:47;;;;;;;;;;;;;;;;;;4332385;33;19951;-77
2023/04/29 16:22:12;;;;;;;;;;;;;;;;;;4330762;33;20014;-78
2023/04/29 16:24:37;;;;;;;;;;;;;;;;;;4331004;33;19947;-77
2023/04/29 16:27:02;;;;;;;;;;;;;;;;;;4342467;33;20297;-76
2023/04/29 16:29:27;;;;;;;;;;;;;;;;;;4331488;33;20013;-76
2023/04/29 16:31:52;;;;;;;;;;;;;;;;;;4331252;33;19974;-76